sensor_id;sensor_type;location;lat;lon;timestamp;temperature;humidity
16136;DHT22;8173;48.354;9.248;2022-10-15T00:02:12;11.60;99.90
16136;DHT22;8173;48.354;9.248;2022-10-15T00:07:07;11.70;99.90
16136;DHT22;8173;48.354;9.248;2022-10-15T00:14:28;11.70;99.90
16136;DHT22;8173;48.354;9.248;2022-10-15T00:16:55;11.70;99.90
16136;DHT22;8173;48.354;9.248;2022-10-15T00:19:22;11.70;99.90
16136;DHT22;8173;48.354;9.248;2022-10-15T00:21:50;11.80;99.90
16136;DHT22;8173;48.354;9.248;2022-10-15T00:24:16;11.70;99.90
16136;DHT22;8173;48.354;9.248;2022-10-15T00:26:43;11.70;99.90
16136;DHT22;8173;48.354;9.248;2022-10-15T00:29:11;11.80;99.90
16136;DHT22;8173;48.354;9.248;2022-10-15T00:31:37;11.80;99.90
16136;DHT22;8173;48.354;9.248;2022-10-15T00:34:04;11.80;99.90
16136;DHT22;8173;48.354;9.248;2022-10-15T00:36:33;11.80;99.90
16136;DHT22;8173;48.354;9.248;2022-10-15T00:39:03;11.80;99.90
16136;DHT22;8173;48.354;9.248;2022-10-15T00:41:32;11.80;99.90
16136;DHT22;8173;48.354;9.248;2022-10-15T00:44:00;11.80;99.90
16136;DHT22;8173;48.354;9.248;2022-10-15T00:46:30;11.90;99.90
16136;DHT22;8173;48.354;9.248;2022-10-15T00:49:00;11.80;99.90
16136;DHT22;8173;48.354;9.248;2022-10-15T00:51:32;11.90;99.90
16136;DHT22;8173;48.354;9.248;2022-10-15T00:54:01;11.80;99.90
16136;DHT22;8173;48.354;9.248;2022-10-15T00:56:30;11.90;99.90
16136;DHT22;8173;48.354;9.248;2022-10-15T00:58:58;11.80;99.90
16136;DHT22;8173;48.354;9.248;2022-10-15T01:01:26;11.90;99.90
16136;DHT22;8173;48.354;9.248;2022-10-15T01:03:54;11.80;99.90
16136;DHT22;8173;48.354;9.248;2022-10-15T01:06:21;11.80;99.90
16136;DHT22;8173;48.354;9.248;2022-10-15T01:08:48;11.80;99.90
16136;DHT22;8173;48.354;9.248;2022-10-15T01:11:27;11.80;99.90
16136;DHT22;8173;48.354;9.248;2022-10-15T01:14:03;11.80;99.90
16136;DHT22;8173;48.354;9.248;2022-10-15T01:16:37;11.90;99.90
16136;DHT22;8173;48.354;9.248;2022-10-15T01:19:14;11.80;99.90
16136;DHT22;8173;48.354;9.248;2022-10-15T01:21:48;11.80;99.90
16136;DHT22;8173;48.354;9.248;2022-10-15T01:27:26;11.90;99.90
16136;DHT22;8173;48.354;9.248;2022-10-15T01:33:09;11.90;99.90
16136;DHT22;8173;48.354;9.248;2022-10-15T01:35:46;11.90;99.90
16136;DHT22;8173;48.354;9.248;2022-10-15T01:38:22;12.00;99.90
16136;DHT22;8173;48.354;9.248;2022-10-15T01:40:53;11.90;99.90
16136;DHT22;8173;48.354;9.248;2022-10-15T01:43:26;11.90;99.90
16136;DHT22;8173;48.354;9.248;2022-10-15T01:45:57;12.00;99.90
16136;DHT22;8173;48.354;9.248;2022-10-15T01:48:27;12.00;99.90
16136;DHT22;8173;48.354;9.248;2022-10-15T01:50:57;12.00;99.90
16136;DHT22;8173;48.354;9.248;2022-10-15T01:55:54;12.00;99.90
16136;DHT22;8173;48.354;9.248;2022-10-15T01:58:23;12.00;99.90
16136;DHT22;8173;48.354;9.248;2022-10-15T02:00:51;12.10;99.90
16136;DHT22;8173;48.354;9.248;2022-10-15T02:05:53;12.10;99.90
16136;DHT22;8173;48.354;9.248;2022-10-15T02:08:27;12.00;99.90
16136;DHT22;8173;48.354;9.248;2022-10-15T02:11:02;12.40;99.90
16136;DHT22;8173;48.354;9.248;2022-10-15T02:13:37;12.00;99.90
16136;DHT22;8173;48.354;9.248;2022-10-15T02:16:11;12.10;99.90
16136;DHT22;8173;48.354;9.248;2022-10-15T02:18:40;12.10;99.90
16136;DHT22;8173;48.354;9.248;2022-10-15T02:21:16;12.00;99.90
16136;DHT22;8173;48.354;9.248;2022-10-15T02:23:46;12.10;99.90
16136;DHT22;8173;48.354;9.248;2022-10-15T02:26:15;12.20;99.90
16136;DHT22;8173;48.354;9.248;2022-10-15T02:28:46;12.30;99.90
16136;DHT22;8173;48.354;9.248;2022-10-15T02:31:17;12.30;99.90
16136;DHT22;8173;48.354;9.248;2022-10-15T02:33:45;12.40;99.90
16136;DHT22;8173;48.354;9.248;2022-10-15T02:36:15;12.40;99.90
16136;DHT22;8173;48.354;9.248;2022-10-15T02:38:44;12.40;99.90
16136;DHT22;8173;48.354;9.248;2022-10-15T02:41:11;12.60;99.90
16136;DHT22;8173;48.354;9.248;2022-10-15T02:43:39;12.70;99.90
16136;DHT22;8173;48.354;9.248;2022-10-15T02:46:09;12.70;99.90
16136;DHT22;8173;48.354;9.248;2022-10-15T02:48:37;12.80;99.90
16136;DHT22;8173;48.354;9.248;2022-10-15T02:51:04;12.80;99.90
16136;DHT22;8173;48.354;9.248;2022-10-15T02:53:32;12.80;99.90
16136;DHT22;8173;48.354;9.248;2022-10-15T02:55:59;12.80;99.90
16136;DHT22;8173;48.354;9.248;2022-10-15T02:58:26;12.90;99.90
16136;DHT22;8173;48.354;9.248;2022-10-15T03:00:53;12.90;99.90
16136;DHT22;8173;48.354;9.248;2022-10-15T03:05:47;12.90;99.90
16136;DHT22;8173;48.354;9.248;2022-10-15T03:08:14;12.90;99.90
16136;DHT22;8173;48.354;9.248;2022-10-15T03:10:42;12.90;99.90
16136;DHT22;8173;48.354;9.248;2022-10-15T03:13:10;12.90;99.90
16136;DHT22;8173;48.354;9.248;2022-10-15T03:15:37;12.90;99.90
16136;DHT22;8173;48.354;9.248;2022-10-15T03:18:04;12.90;99.90
16136;DHT22;8173;48.354;9.248;2022-10-15T03:25:25;12.90;99.90
16136;DHT22;8173;48.354;9.248;2022-10-15T03:27:53;12.80;99.90
16136;DHT22;8173;48.354;9.248;2022-10-15T03:30:21;12.80;99.90
16136;DHT22;8173;48.354;9.248;2022-10-15T03:32:48;12.80;99.90
16136;DHT22;8173;48.354;9.248;2022-10-15T03:35:15;12.80;99.90
16136;DHT22;8173;48.354;9.248;2022-10-15T03:37:42;12.80;99.90
16136;DHT22;8173;48.354;9.248;2022-10-15T03:40:09;12.70;99.90
16136;DHT22;8173;48.354;9.248;2022-10-15T03:42:36;12.70;99.90
16136;DHT22;8173;48.354;9.248;2022-10-15T03:45:05;12.80;99.90
16136;DHT22;8173;48.354;9.248;2022-10-15T03:47:32;12.80;99.90
16136;DHT22;8173;48.354;9.248;2022-10-15T03:49:58;12.80;99.90
16136;DHT22;8173;48.354;9.248;2022-10-15T03:52:25;12.80;99.90
16136;DHT22;8173;48.354;9.248;2022-10-15T03:54:52;12.70;99.90
16136;DHT22;8173;48.354;9.248;2022-10-15T03:59:45;12.70;99.90
16136;DHT22;8173;48.354;9.248;2022-10-15T04:02:14;12.70;99.90
16136;DHT22;8173;48.354;9.248;2022-10-15T04:07:08;12.70;99.90
16136;DHT22;8173;48.354;9.248;2022-10-15T04:09:34;12.70;99.90
16136;DHT22;8173;48.354;9.248;2022-10-15T04:14:28;12.70;99.90
16136;DHT22;8173;48.354;9.248;2022-10-15T04:16:55;12.70;99.90
16136;DHT22;8173;48.354;9.248;2022-10-15T04:19:24;12.70;99.90
16136;DHT22;8173;48.354;9.248;2022-10-15T04:21:51;12.70;99.90
16136;DHT22;8173;48.354;9.248;2022-10-15T04:24:18;12.80;99.90
16136;DHT22;8173;48.354;9.248;2022-10-15T04:29:12;12.70;99.90
16136;DHT22;8173;48.354;9.248;2022-10-15T04:31:39;12.70;99.90
16136;DHT22;8173;48.354;9.248;2022-10-15T04:34:06;12.80;99.90
16136;DHT22;8173;48.354;9.248;2022-10-15T04:36:34;12.70;99.90
16136;DHT22;8173;48.354;9.248;2022-10-15T04:41:28;12.80;99.90
16136;DHT22;8173;48.354;9.248;2022-10-15T04:43:56;12.80;99.90
16136;DHT22;8173;48.354;9.248;2022-10-15T04:46:23;12.70;99.90
16136;DHT22;8173;48.354;9.248;2022-10-15T04:48:51;12.70;99.90
16136;DHT22;8173;48.354;9.248;2022-10-15T04:51:22;12.80;99.90
16136;DHT22;8173;48.354;9.248;2022-10-15T04:53:51;12.70;99.90
16136;DHT22;8173;48.354;9.248;2022-10-15T04:56:19;12.70;99.90
16136;DHT22;8173;48.354;9.248;2022-10-15T04:58:47;12.70;99.90
16136;DHT22;8173;48.354;9.248;2022-10-15T05:01:16;12.70;99.90
16136;DHT22;8173;48.354;9.248;2022-10-15T05:03:45;12.60;99.90
16136;DHT22;8173;48.354;9.248;2022-10-15T05:06:13;12.60;99.90
16136;DHT22;8173;48.354;9.248;2022-10-15T05:08:41;12.50;99.90
16136;DHT22;8173;48.354;9.248;2022-10-15T05:11:11;12.50;99.90
16136;DHT22;8173;48.354;9.248;2022-10-15T05:13:38;12.50;99.90
16136;DHT22;8173;48.354;9.248;2022-10-15T05:16:11;12.50;99.90
16136;DHT22;8173;48.354;9.248;2022-10-15T05:21:05;12.50;99.90
16136;DHT22;8173;48.354;9.248;2022-10-15T05:23:32;12.40;99.90
16136;DHT22;8173;48.354;9.248;2022-10-15T05:28:27;12.40;99.90
16136;DHT22;8173;48.354;9.248;2022-10-15T05:30:54;12.40;99.90
16136;DHT22;8173;48.354;9.248;2022-10-15T05:33:21;12.40;99.90
16136;DHT22;8173;48.354;9.248;2022-10-15T05:35:48;12.40;99.90
16136;DHT22;8173;48.354;9.248;2022-10-15T05:38:14;12.30;99.90
16136;DHT22;8173;48.354;9.248;2022-10-15T05:40:46;12.40;99.90
16136;DHT22;8173;48.354;9.248;2022-10-15T05:43:13;12.40;99.90
16136;DHT22;8173;48.354;9.248;2022-10-15T05:45:41;12.40;99.90
16136;DHT22;8173;48.354;9.248;2022-10-15T05:48:08;12.30;99.90
16136;DHT22;8173;48.354;9.248;2022-10-15T05:50:35;12.30;99.90
16136;DHT22;8173;48.354;9.248;2022-10-15T05:55:29;12.40;99.90
16136;DHT22;8173;48.354;9.248;2022-10-15T05:58:00;12.40;99.90
16136;DHT22;8173;48.354;9.248;2022-10-15T06:00:27;12.40;99.90
16136;DHT22;8173;48.354;9.248;2022-10-15T06:05:22;12.50;99.90
16136;DHT22;8173;48.354;9.248;2022-10-15T06:07:49;12.40;99.90
16136;DHT22;8173;48.354;9.248;2022-10-15T06:10:16;12.50;99.90
16136;DHT22;8173;48.354;9.248;2022-10-15T06:12:48;12.50;99.90
16136;DHT22;8173;48.354;9.248;2022-10-15T06:15:15;12.50;99.90
16136;DHT22;8173;48.354;9.248;2022-10-15T06:20:10;12.60;99.90
16136;DHT22;8173;48.354;9.248;2022-10-15T06:22:37;12.60;99.90
16136;DHT22;8173;48.354;9.248;2022-10-15T06:25:05;12.60;99.90
16136;DHT22;8173;48.354;9.248;2022-10-15T06:27:32;12.60;99.90
16136;DHT22;8173;48.354;9.248;2022-10-15T06:29:59;12.60;99.90
16136;DHT22;8173;48.354;9.248;2022-10-15T06:32:25;12.60;99.90
16136;DHT22;8173;48.354;9.248;2022-10-15T06:34:52;12.60;99.90
16136;DHT22;8173;48.354;9.248;2022-10-15T06:37:20;12.60;99.90
16136;DHT22;8173;48.354;9.248;2022-10-15T06:39:47;12.70;99.90
16136;DHT22;8173;48.354;9.248;2022-10-15T06:42:14;12.70;99.90
16136;DHT22;8173;48.354;9.248;2022-10-15T06:44:40;12.70;99.90
16136;DHT22;8173;48.354;9.248;2022-10-15T06:47:08;12.80;99.90
16136;DHT22;8173;48.354;9.248;2022-10-15T06:52:02;12.90;99.90
16136;DHT22;8173;48.354;9.248;2022-10-15T06:56:57;13.00;99.90
16136;DHT22;8173;48.354;9.248;2022-10-15T06:59:23;13.00;99.90
16136;DHT22;8173;48.354;9.248;2022-10-15T07:01:50;13.10;99.90
16136;DHT22;8173;48.354;9.248;2022-10-15T07:04:17;13.00;99.90
16136;DHT22;8173;48.354;9.248;2022-10-15T07:06:43;13.10;99.90
16136;DHT22;8173;48.354;9.248;2022-10-15T07:09:10;13.00;99.90
16136;DHT22;8173;48.354;9.248;2022-10-15T07:11:38;13.10;99.90
16136;DHT22;8173;48.354;9.248;2022-10-15T07:14:05;13.10;99.90
16136;DHT22;8173;48.354;9.248;2022-10-15T07:18:59;13.10;99.90
16136;DHT22;8173;48.354;9.248;2022-10-15T07:21:26;13.00;99.90
16136;DHT22;8173;48.354;9.248;2022-10-15T07:23:52;13.00;99.90
16136;DHT22;8173;48.354;9.248;2022-10-15T07:26:19;13.00;99.90
16136;DHT22;8173;48.354;9.248;2022-10-15T07:28:47;13.00;99.90
16136;DHT22;8173;48.354;9.248;2022-10-15T07:31:14;13.00;99.90
16136;DHT22;8173;48.354;9.248;2022-10-15T07:33:41;12.90;99.90
16136;DHT22;8173;48.354;9.248;2022-10-15T07:36:10;12.90;99.90
16136;DHT22;8173;48.354;9.248;2022-10-15T07:38:38;12.90;99.90
16136;DHT22;8173;48.354;9.248;2022-10-15T07:41:07;12.90;99.90
16136;DHT22;8173;48.354;9.248;2022-10-15T07:46:03;13.10;99.90
16136;DHT22;8173;48.354;9.248;2022-10-15T07:48:31;13.20;99.90
16136;DHT22;8173;48.354;9.248;2022-10-15T07:50:59;13.30;99.90
16136;DHT22;8173;48.354;9.248;2022-10-15T07:53:26;13.40;99.90
16136;DHT22;8173;48.354;9.248;2022-10-15T07:55:57;13.50;99.90
16136;DHT22;8173;48.354;9.248;2022-10-15T07:58:24;13.60;99.90
16136;DHT22;8173;48.354;9.248;2022-10-15T08:00:51;13.80;99.90
16136;DHT22;8173;48.354;9.248;2022-10-15T08:03:19;13.90;99.90
16136;DHT22;8173;48.354;9.248;2022-10-15T08:05:46;13.90;99.90
16136;DHT22;8173;48.354;9.248;2022-10-15T08:08:12;14.00;99.90
16136;DHT22;8173;48.354;9.248;2022-10-15T08:10:39;14.10;99.90
16136;DHT22;8173;48.354;9.248;2022-10-15T08:13:06;14.30;99.90
16136;DHT22;8173;48.354;9.248;2022-10-15T08:15:33;15.10;99.90
16136;DHT22;8173;48.354;9.248;2022-10-15T08:17:59;15.50;99.90
16136;DHT22;8173;48.354;9.248;2022-10-15T08:20:27;15.90;99.90
16136;DHT22;8173;48.354;9.248;2022-10-15T08:22:54;16.10;99.90
16136;DHT22;8173;48.354;9.248;2022-10-15T08:25:21;16.00;99.90
16136;DHT22;8173;48.354;9.248;2022-10-15T08:30:15;15.80;99.90
16136;DHT22;8173;48.354;9.248;2022-10-15T08:32:41;15.90;99.90
16136;DHT22;8173;48.354;9.248;2022-10-15T08:35:08;15.90;99.90
16136;DHT22;8173;48.354;9.248;2022-10-15T08:37:36;15.80;99.90
16136;DHT22;8173;48.354;9.248;2022-10-15T08:40:04;15.80;99.90
16136;DHT22;8173;48.354;9.248;2022-10-15T08:42:35;15.80;99.90
16136;DHT22;8173;48.354;9.248;2022-10-15T08:45:03;16.20;99.90
16136;DHT22;8173;48.354;9.248;2022-10-15T08:47:35;16.90;99.90
16136;DHT22;8173;48.354;9.248;2022-10-15T08:50:09;16.90;99.90
16136;DHT22;8173;48.354;9.248;2022-10-15T08:52:41;16.60;99.90
16136;DHT22;8173;48.354;9.248;2022-10-15T08:55:09;16.20;99.90
16136;DHT22;8173;48.354;9.248;2022-10-15T08:57:40;16.00;99.90
16136;DHT22;8173;48.354;9.248;2022-10-15T09:00:13;15.70;99.90
16136;DHT22;8173;48.354;9.248;2022-10-15T09:02:49;15.20;99.90
16136;DHT22;8173;48.354;9.248;2022-10-15T09:05:35;15.50;99.90
16136;DHT22;8173;48.354;9.248;2022-10-15T09:08:15;15.00;99.90
16136;DHT22;8173;48.354;9.248;2022-10-15T09:10:46;15.00;99.90
16136;DHT22;8173;48.354;9.248;2022-10-15T09:13:17;15.10;99.90
16136;DHT22;8173;48.354;9.248;2022-10-15T09:15:50;15.00;99.90
16136;DHT22;8173;48.354;9.248;2022-10-15T09:18:22;15.20;99.90
16136;DHT22;8173;48.354;9.248;2022-10-15T09:20:50;15.30;99.90
16136;DHT22;8173;48.354;9.248;2022-10-15T09:23:21;15.40;99.90
16136;DHT22;8173;48.354;9.248;2022-10-15T09:25:53;15.70;99.90
16136;DHT22;8173;48.354;9.248;2022-10-15T09:28:24;15.70;99.90
16136;DHT22;8173;48.354;9.248;2022-10-15T09:30:56;16.00;99.90
16136;DHT22;8173;48.354;9.248;2022-10-15T09:33:32;16.30;99.90
16136;DHT22;8173;48.354;9.248;2022-10-15T09:36:08;16.20;99.90
16136;DHT22;8173;48.354;9.248;2022-10-15T09:38:49;15.90;99.90
16136;DHT22;8173;48.354;9.248;2022-10-15T09:41:25;15.70;99.90
16136;DHT22;8173;48.354;9.248;2022-10-15T09:43:56;15.60;99.90
16136;DHT22;8173;48.354;9.248;2022-10-15T09:48:57;15.90;99.90
16136;DHT22;8173;48.354;9.248;2022-10-15T09:51:31;16.20;99.90
16136;DHT22;8173;48.354;9.248;2022-10-15T09:54:08;16.10;99.90
16136;DHT22;8173;48.354;9.248;2022-10-15T09:56:42;16.10;99.90
16136;DHT22;8173;48.354;9.248;2022-10-15T09:59:14;16.10;99.90
16136;DHT22;8173;48.354;9.248;2022-10-15T10:01:56;16.10;99.90
16136;DHT22;8173;48.354;9.248;2022-10-15T10:04:25;16.00;99.90
16136;DHT22;8173;48.354;9.248;2022-10-15T10:06:56;16.10;99.90
16136;DHT22;8173;48.354;9.248;2022-10-15T10:09:28;16.20;99.90
16136;DHT22;8173;48.354;9.248;2022-10-15T10:11:58;16.20;99.90
16136;DHT22;8173;48.354;9.248;2022-10-15T10:14:28;16.10;99.90
16136;DHT22;8173;48.354;9.248;2022-10-15T10:17:18;16.10;99.90
16136;DHT22;8173;48.354;9.248;2022-10-15T10:20:14;16.10;99.90
16136;DHT22;8173;48.354;9.248;2022-10-15T10:22:43;16.50;99.90
16136;DHT22;8173;48.354;9.248;2022-10-15T10:25:34;16.90;99.90
16136;DHT22;8173;48.354;9.248;2022-10-15T10:28:11;17.00;99.90
16136;DHT22;8173;48.354;9.248;2022-10-15T10:30:47;17.50;99.90
16136;DHT22;8173;48.354;9.248;2022-10-15T10:33:21;18.10;99.90
16136;DHT22;8173;48.354;9.248;2022-10-15T10:35:50;18.40;99.90
16136;DHT22;8173;48.354;9.248;2022-10-15T10:38:19;18.70;99.90
16136;DHT22;8173;48.354;9.248;2022-10-15T10:40:51;17.90;99.90
16136;DHT22;8173;48.354;9.248;2022-10-15T10:43:24;17.00;99.90
16136;DHT22;8173;48.354;9.248;2022-10-15T10:45:55;16.80;99.90
16136;DHT22;8173;48.354;9.248;2022-10-15T10:48:25;16.60;99.90
16136;DHT22;8173;48.354;9.248;2022-10-15T10:51:04;16.60;99.90
16136;DHT22;8173;48.354;9.248;2022-10-15T10:53:33;16.30;99.90
16136;DHT22;8173;48.354;9.248;2022-10-15T10:56:03;12.90;99.90
16136;DHT22;8173;48.354;9.248;2022-10-15T10:58:33;16.40;99.90
16136;DHT22;8173;48.354;9.248;2022-10-15T11:01:00;16.50;99.90
16136;DHT22;8173;48.354;9.248;2022-10-15T11:03:33;16.30;99.90
16136;DHT22;8173;48.354;9.248;2022-10-15T11:06:18;16.40;99.90
16136;DHT22;8173;48.354;9.248;2022-10-15T11:08:54;16.30;99.90
16136;DHT22;8173;48.354;9.248;2022-10-15T11:11:31;16.20;99.90
16136;DHT22;8173;48.354;9.248;2022-10-15T11:14:05;16.00;99.90
16136;DHT22;8173;48.354;9.248;2022-10-15T11:16:37;15.80;99.90
16136;DHT22;8173;48.354;9.248;2022-10-15T11:19:20;15.70;99.90
16136;DHT22;8173;48.354;9.248;2022-10-15T11:22:02;15.70;99.90
16136;DHT22;8173;48.354;9.248;2022-10-15T11:24:40;15.70;99.90
16136;DHT22;8173;48.354;9.248;2022-10-15T11:27:21;15.70;99.90
16136;DHT22;8173;48.354;9.248;2022-10-15T11:29:55;15.80;99.90
16136;DHT22;8173;48.354;9.248;2022-10-15T11:32:33;15.90;99.90
16136;DHT22;8173;48.354;9.248;2022-10-15T11:35:16;16.10;99.90
16136;DHT22;8173;48.354;9.248;2022-10-15T11:37:52;16.10;99.90
16136;DHT22;8173;48.354;9.248;2022-10-15T11:40:27;16.40;99.90
16136;DHT22;8173;48.354;9.248;2022-10-15T11:43:02;16.40;99.90
16136;DHT22;8173;48.354;9.248;2022-10-15T11:45:43;17.00;99.90
16136;DHT22;8173;48.354;9.248;2022-10-15T11:48:19;17.00;99.90
16136;DHT22;8173;48.354;9.248;2022-10-15T11:50:50;17.00;99.90
16136;DHT22;8173;48.354;9.248;2022-10-15T11:53:38;17.50;99.90
16136;DHT22;8173;48.354;9.248;2022-10-15T11:56:12;17.20;99.90
16136;DHT22;8173;48.354;9.248;2022-10-15T11:58:43;17.10;99.90
16136;DHT22;8173;48.354;9.248;2022-10-15T12:01:16;17.10;99.90
16136;DHT22;8173;48.354;9.248;2022-10-15T12:03:49;16.70;99.90
16136;DHT22;8173;48.354;9.248;2022-10-15T12:06:20;17.10;99.90
16136;DHT22;8173;48.354;9.248;2022-10-15T12:08:49;16.90;99.90
16136;DHT22;8173;48.354;9.248;2022-10-15T12:11:27;16.90;99.90
16136;DHT22;8173;48.354;9.248;2022-10-15T12:14:01;16.80;99.90
16136;DHT22;8173;48.354;9.248;2022-10-15T12:16:35;16.70;99.90
16136;DHT22;8173;48.354;9.248;2022-10-15T12:19:11;16.60;99.90
16136;DHT22;8173;48.354;9.248;2022-10-15T12:21:42;16.60;99.90
16136;DHT22;8173;48.354;9.248;2022-10-15T12:27:15;16.30;99.90
16136;DHT22;8173;48.354;9.248;2022-10-15T12:29:48;16.40;99.90
16136;DHT22;8173;48.354;9.248;2022-10-15T12:32:23;16.50;99.90
16136;DHT22;8173;48.354;9.248;2022-10-15T12:34:54;16.70;99.90
16136;DHT22;8173;48.354;9.248;2022-10-15T12:37:23;16.90;99.90
16136;DHT22;8173;48.354;9.248;2022-10-15T12:39:54;16.90;99.90
16136;DHT22;8173;48.354;9.248;2022-10-15T12:42:24;16.90;99.90
16136;DHT22;8173;48.354;9.248;2022-10-15T12:44:53;16.90;99.90
16136;DHT22;8173;48.354;9.248;2022-10-15T12:47:51;16.60;99.90
16136;DHT22;8173;48.354;9.248;2022-10-15T12:50:20;16.50;99.90
16136;DHT22;8173;48.354;9.248;2022-10-15T12:52:58;16.20;99.90
16136;DHT22;8173;48.354;9.248;2022-10-15T12:55:31;16.20;99.90
16136;DHT22;8173;48.354;9.248;2022-10-15T12:58:00;16.20;99.90
16136;DHT22;8173;48.354;9.248;2022-10-15T13:00:40;16.20;99.90
16136;DHT22;8173;48.354;9.248;2022-10-15T13:03:30;16.30;99.90
16136;DHT22;8173;48.354;9.248;2022-10-15T13:06:13;16.20;99.90
16136;DHT22;8173;48.354;9.248;2022-10-15T13:08:43;16.20;99.90
16136;DHT22;8173;48.354;9.248;2022-10-15T13:11:19;16.40;99.90
16136;DHT22;8173;48.354;9.248;2022-10-15T13:13:49;16.60;99.90
16136;DHT22;8173;48.354;9.248;2022-10-15T13:16:18;16.80;99.90
16136;DHT22;8173;48.354;9.248;2022-10-15T13:18:49;16.90;99.90
16136;DHT22;8173;48.354;9.248;2022-10-15T13:21:16;17.00;99.90
16136;DHT22;8173;48.354;9.248;2022-10-15T13:23:47;16.80;99.90
16136;DHT22;8173;48.354;9.248;2022-10-15T13:26:19;16.60;99.90
16136;DHT22;8173;48.354;9.248;2022-10-15T13:28:47;16.60;99.90
16136;DHT22;8173;48.354;9.248;2022-10-15T13:31:21;16.40;99.90
16136;DHT22;8173;48.354;9.248;2022-10-15T13:33:51;16.30;99.90
16136;DHT22;8173;48.354;9.248;2022-10-15T13:36:21;16.20;99.90
16136;DHT22;8173;48.354;9.248;2022-10-15T13:38:55;16.20;99.90
16136;DHT22;8173;48.354;9.248;2022-10-15T13:41:24;16.20;99.90
16136;DHT22;8173;48.354;9.248;2022-10-15T13:43:52;16.20;99.90
16136;DHT22;8173;48.354;9.248;2022-10-15T13:46:24;16.10;99.90
16136;DHT22;8173;48.354;9.248;2022-10-15T13:48:57;16.10;99.90
16136;DHT22;8173;48.354;9.248;2022-10-15T13:51:30;16.00;99.90
16136;DHT22;8173;48.354;9.248;2022-10-15T13:53:58;15.90;99.90
16136;DHT22;8173;48.354;9.248;2022-10-15T13:56:28;15.80;99.90
16136;DHT22;8173;48.354;9.248;2022-10-15T13:58:56;15.70;99.90
16136;DHT22;8173;48.354;9.248;2022-10-15T14:01:26;15.60;99.90
16136;DHT22;8173;48.354;9.248;2022-10-15T14:03:54;15.60;99.90
16136;DHT22;8173;48.354;9.248;2022-10-15T14:06:22;15.70;99.90
16136;DHT22;8173;48.354;9.248;2022-10-15T14:08:51;15.70;99.90
16136;DHT22;8173;48.354;9.248;2022-10-15T14:11:18;15.70;99.90
16136;DHT22;8173;48.354;9.248;2022-10-15T14:13:46;15.80;99.90
16136;DHT22;8173;48.354;9.248;2022-10-15T14:16:18;15.70;99.90
16136;DHT22;8173;48.354;9.248;2022-10-15T14:18:49;15.90;99.90
16136;DHT22;8173;48.354;9.248;2022-10-15T14:21:18;15.90;99.90
16136;DHT22;8173;48.354;9.248;2022-10-15T14:23:47;15.90;99.90
16136;DHT22;8173;48.354;9.248;2022-10-15T14:26:14;15.90;99.90
16136;DHT22;8173;48.354;9.248;2022-10-15T14:28:49;16.00;99.90
16136;DHT22;8173;48.354;9.248;2022-10-15T14:31:32;15.90;99.90
16136;DHT22;8173;48.354;9.248;2022-10-15T14:34:03;15.80;99.90
16136;DHT22;8173;48.354;9.248;2022-10-15T14:36:39;15.80;99.90
16136;DHT22;8173;48.354;9.248;2022-10-15T14:39:24;15.80;99.90
16136;DHT22;8173;48.354;9.248;2022-10-15T14:41:59;15.80;99.90
16136;DHT22;8173;48.354;9.248;2022-10-15T14:44:39;15.70;99.90
16136;DHT22;8173;48.354;9.248;2022-10-15T14:47:16;15.70;99.90
16136;DHT22;8173;48.354;9.248;2022-10-15T14:49:47;15.70;99.90
16136;DHT22;8173;48.354;9.248;2022-10-15T14:52:16;15.70;99.90
16136;DHT22;8173;48.354;9.248;2022-10-15T14:54:47;15.80;99.90
16136;DHT22;8173;48.354;9.248;2022-10-15T14:57:18;15.80;99.90
16136;DHT22;8173;48.354;9.248;2022-10-15T14:59:46;15.80;99.90
16136;DHT22;8173;48.354;9.248;2022-10-15T15:02:14;15.80;99.90
16136;DHT22;8173;48.354;9.248;2022-10-15T15:04:44;15.90;99.90
16136;DHT22;8173;48.354;9.248;2022-10-15T15:07:19;16.00;99.90
16136;DHT22;8173;48.354;9.248;2022-10-15T15:09:47;16.10;99.90
16136;DHT22;8173;48.354;9.248;2022-10-15T15:12:18;16.10;99.90
16136;DHT22;8173;48.354;9.248;2022-10-15T15:14:45;16.20;99.90
16136;DHT22;8173;48.354;9.248;2022-10-15T15:17:17;16.30;99.90
16136;DHT22;8173;48.354;9.248;2022-10-15T15:19:44;16.20;99.90
16136;DHT22;8173;48.354;9.248;2022-10-15T15:22:14;16.10;99.90
16136;DHT22;8173;48.354;9.248;2022-10-15T15:24:42;16.00;99.90
16136;DHT22;8173;48.354;9.248;2022-10-15T15:27:20;16.00;99.90
16136;DHT22;8173;48.354;9.248;2022-10-15T15:29:48;16.10;99.90
16136;DHT22;8173;48.354;9.248;2022-10-15T15:32:15;16.20;99.90
16136;DHT22;8173;48.354;9.248;2022-10-15T15:34:41;16.20;99.90
16136;DHT22;8173;48.354;9.248;2022-10-15T15:37:12;16.20;99.90
16136;DHT22;8173;48.354;9.248;2022-10-15T15:39:38;16.20;99.90
16136;DHT22;8173;48.354;9.248;2022-10-15T15:42:10;16.10;99.90
16136;DHT22;8173;48.354;9.248;2022-10-15T15:44:37;16.10;99.90
16136;DHT22;8173;48.354;9.248;2022-10-15T15:47:04;16.00;99.90
16136;DHT22;8173;48.354;9.248;2022-10-15T15:49:30;15.90;99.90
16136;DHT22;8173;48.354;9.248;2022-10-15T15:51:57;15.80;99.90
16136;DHT22;8173;48.354;9.248;2022-10-15T15:54:24;15.70;99.90
16136;DHT22;8173;48.354;9.248;2022-10-15T15:56:51;15.50;99.90
16136;DHT22;8173;48.354;9.248;2022-10-15T15:59:19;15.40;99.90
16136;DHT22;8173;48.354;9.248;2022-10-15T16:01:45;15.30;99.90
16136;DHT22;8173;48.354;9.248;2022-10-15T16:04:12;15.20;99.90
16136;DHT22;8173;48.354;9.248;2022-10-15T16:06:39;15.10;99.90
16136;DHT22;8173;48.354;9.248;2022-10-15T16:09:07;14.90;99.90
16136;DHT22;8173;48.354;9.248;2022-10-15T16:11:36;14.90;99.90
16136;DHT22;8173;48.354;9.248;2022-10-15T16:14:03;14.70;99.90
16136;DHT22;8173;48.354;9.248;2022-10-15T16:16:31;14.70;99.90
16136;DHT22;8173;48.354;9.248;2022-10-15T16:18:58;14.70;99.90
16136;DHT22;8173;48.354;9.248;2022-10-15T16:21:26;14.60;99.90
16136;DHT22;8173;48.354;9.248;2022-10-15T16:23:53;14.50;99.90
16136;DHT22;8173;48.354;9.248;2022-10-15T16:26:20;14.40;99.90
16136;DHT22;8173;48.354;9.248;2022-10-15T16:28:47;14.30;99.90
16136;DHT22;8173;48.354;9.248;2022-10-15T16:31:14;14.10;99.90
16136;DHT22;8173;48.354;9.248;2022-10-15T16:33:42;14.00;99.90
16136;DHT22;8173;48.354;9.248;2022-10-15T16:36:09;13.90;99.90
16136;DHT22;8173;48.354;9.248;2022-10-15T16:38:38;13.80;99.90
16136;DHT22;8173;48.354;9.248;2022-10-15T16:41:05;13.70;99.90
16136;DHT22;8173;48.354;9.248;2022-10-15T16:43:32;13.70;99.90
16136;DHT22;8173;48.354;9.248;2022-10-15T16:45:59;13.70;99.90
16136;DHT22;8173;48.354;9.248;2022-10-15T16:48:28;13.70;99.90
16136;DHT22;8173;48.354;9.248;2022-10-15T16:51:01;13.70;99.90
16136;DHT22;8173;48.354;9.248;2022-10-15T16:53:28;13.60;99.90
16136;DHT22;8173;48.354;9.248;2022-10-15T16:55:59;13.50;99.90
16136;DHT22;8173;48.354;9.248;2022-10-15T16:58:26;13.50;99.90
16136;DHT22;8173;48.354;9.248;2022-10-15T17:00:52;13.40;99.90
16136;DHT22;8173;48.354;9.248;2022-10-15T17:03:19;13.30;99.90
16136;DHT22;8173;48.354;9.248;2022-10-15T17:05:46;13.20;99.90
16136;DHT22;8173;48.354;9.248;2022-10-15T17:08:14;13.20;99.90
16136;DHT22;8173;48.354;9.248;2022-10-15T17:10:41;13.20;99.90
16136;DHT22;8173;48.354;9.248;2022-10-15T17:13:09;13.10;99.90